Time;durP1;ratioP1;P1;durP2;ratioP2;P2;SDS_P1;SDS_P2;PMS_P1;PMS_P2;Temp;Humidity;BMP_temperature;BMP_pressure;BME280_temperature;BME280_humidity;BME280_pressure;Samples;Min_cycle;Max_cycle;Signal;HPM_P1;HPM_P2
2023/07/22 00:00:15;;;;;;;10.50;9.50;;;;;;;13.46;100.00;100494.00;4932097;29;20479;-82
2023/07/22 00:02:48;;;;;;;10.97;9.73;;;;;;;13.40;100.00;100492.22;4938713;29;20451;-81
2023/07/22 00:05:22;;;;;;;11.40;10.50;;;;;;;13.39;100.00;100488.69;4945636;29;20459;-82
2023/07/22 00:07:52;;;;;;;10.87;9.77;;;;;;;13.48;100.00;100500.06;4938235;29;20484;-80
2023/07/22 00:10:21;;;;;;;10.70;9.77;;;;;;;13.52;100.00;100494.97;4928578;29;20441;-80
2023/07/22 00:12:50;;;;;;;11.20;10.20;;;;;;;13.51;100.00;100501.50;4939284;29;20439;-81
2023/07/22 00:15:23;;;;;;;11.13;10.03;;;;;;;13.67;100.00;100506.25;4954807;29;20444;-80
2023/07/22 00:17:55;;;;;;;11.00;10.10;;;;;;;13.74;100.00;100501.56;4958176;28;20440;-83
2023/07/22 00:20:25;;;;;;;12.10;11.00;;;;;;;13.93;100.00;100500.44;4962005;28;20429;-82
2023/07/22 00:22:55;;;;;;;10.30;9.47;;;;;;;14.02;100.00;100490.03;4959847;28;20403;-83
2023/07/22 00:25:24;;;;;;;10.77;9.77;;;;;;;14.03;100.00;100500.69;4962912;28;20459;-80
2023/07/22 00:27:53;;;;;;;10.27;9.07;;;;;;;14.07;100.00;100499.16;4961536;28;20476;-82
2023/07/22 00:30:22;;;;;;;11.00;9.47;;;;;;;14.10;100.00;100495.13;4974677;29;20533;-82
2023/07/22 00:32:56;;;;;;;10.90;10.03;;;;;;;14.14;100.00;100497.13;4958729;29;20439;-81
2023/07/22 00:35:25;;;;;;;10.43;8.93;;;;;;;14.18;100.00;100502.97;4952170;29;20403;-82
2023/07/22 00:37:55;;;;;;;10.13;9.30;;;;;;;14.14;100.00;100502.56;4944142;29;20462;-83
2023/07/22 00:40:24;;;;;;;10.60;9.40;;;;;;;14.19;100.00;100504.59;4946420;29;20444;-82
2023/07/22 00:42:54;;;;;;;11.60;10.60;;;;;;;14.26;100.00;100510.75;4943117;29;20402;-82
2023/07/22 00:45:23;;;;;;;10.50;9.50;;;;;;;14.24;100.00;100519.16;4945500;29;20455;-82
2023/07/22 00:47:52;;;;;;;12.00;10.70;;;;;;;14.22;100.00;100513.13;4941470;29;20464;-82
2023/07/22 00:50:25;;;;;;;10.90;9.83;;;;;;;14.20;100.00;100507.09;4935558;29;20514;-82
2023/07/22 00:52:54;;;;;;;11.77;10.63;;;;;;;14.19;100.00;100508.16;4935894;29;20449;-82
2023/07/22 00:55:26;;;;;;;12.73;9.80;;;;;;;14.19;100.00;100502.69;4944877;29;20649;-83
2023/07/22 00:57:56;;;;;;;12.90;11.83;;;;;;;14.30;100.00;100503.78;4933756;29;20460;-83
2023/07/22 01:00:25;;;;;;;12.83;11.73;;;;;;;14.32;100.00;100510.66;4930181;29;20435;-83
2023/07/22 01:02:55;;;;;;;11.03;10.10;;;;;;;14.37;100.00;100512.69;4938837;29;20489;-82
2023/07/22 01:05:26;;;;;;;11.17;10.07;;;;;;;14.33;100.00;100511.47;4944670;29;20720;-82
2023/07/22 01:07:56;;;;;;;11.50;10.43;;;;;;;14.38;100.00;100510.81;4943443;29;20461;-81
2023/07/22 01:10:25;;;;;;;11.47;10.47;;;;;;;14.37;100.00;100514.59;4929001;29;20514;-81
2023/07/22 01:12:55;;;;;;;12.57;11.37;;;;;;;14.37;100.00;100515.44;4942287;29;20522;-82
2023/07/22 01:15:25;;;;;;;11.47;10.37;;;;;;;14.35;100.00;100515.63;4942049;29;20452;-83
2023/07/22 01:17:56;;;;;;;11.40;10.50;;;;;;;14.39;100.00;100507.00;4943462;29;20894;-83
2023/07/22 01:20:27;;;;;;;11.20;10.20;;;;;;;14.44;100.00;100507.13;4925376;29;20477;-81
2023/07/22 01:22:58;;;;;;;11.60;10.40;;;;;;;14.44;100.00;100509.84;4934505;29;20873;-79
2023/07/22 01:25:28;;;;;;;12.40;11.03;;;;;;;14.42;100.00;100509.28;4948197;29;20452;-80
2023/07/22 01:27:59;;;;;;;13.17;11.50;;;;;;;14.43;100.00;100516.34;4936444;29;20448;-84
2023/07/22 01:30:29;;;;;;;12.27;9.93;;;;;;;14.42;100.00;100509.28;4944736;29;20925;-83
2023/07/22 01:32:58;;;;;;;13.10;12.00;;;;;;;14.38;100.00;100510.81;4950652;29;20444;-80
2023/07/22 01:35:29;;;;;;;11.73;10.73;;;;;;;14.39;100.00;100513.28;4950200;29;20516;-81
2023/07/22 01:38:00;;;;;;;18.47;10.43;;;;;;;14.38;100.00;100508.09;4967675;28;20434;-82
2023/07/22 01:40:29;;;;;;;10.53;9.63;;;;;;;14.35;100.00;100522.97;4948952;29;20492;-82
2023/07/22 01:42:59;;;;;;;15.80;10.70;;;;;;;14.34;100.00;100519.41;4946672;29;20407;-81
2023/07/22 01:45:28;;;;;;;12.57;11.57;;;;;;;14.44;100.00;100518.00;4937712;29;20452;-83
2023/07/22 01:48:01;;;;;;;12.97;11.50;;;;;;;14.42;100.00;100515.56;4935774;29;20462;-84
2023/07/22 01:50:30;;;;;;;10.60;9.60;;;;;;;14.45;100.00;100511.50;4947639;29;20473;-82
2023/07/22 01:53:01;;;;;;;11.27;10.37;;;;;;;14.33;100.00;100511.47;4949640;29;20413;-81
2023/07/22 01:55:33;;;;;;;13.73;10.40;;;;;;;14.44;100.00;100512.56;4934520;29;20404;-83
2023/07/22 01:58:02;;;;;;;11.87;10.87;;;;;;;14.40;100.00;100514.13;4940694;29;20510;-81
2023/07/22 02:00:35;;;;;;;12.07;10.97;;;;;;;14.44;100.00;100518.00;4937446;29;20437;-82
2023/07/22 02:03:05;;;;;;;12.00;11.10;;;;;;;14.42;100.00;100536.50;4931839;29;20457;-82
2023/07/22 02:05:34;;;;;;;12.77;11.57;;;;;;;14.41;100.00;100534.84;4941149;29;20476;-82
2023/07/22 02:08:06;;;;;;;11.37;10.47;;;;;;;14.35;100.00;100531.94;4936554;29;20450;-82
2023/07/22 02:10:35;;;;;;;13.17;12.07;;;;;;;14.37;100.00;100533.66;4943330;29;20422;-82
2023/07/22 02:13:05;;;;;;;11.07;9.97;;;;;;;14.34;100.00;100535.72;4948738;29;20650;-80
2023/07/22 02:15:34;;;;;;;17.50;12.00;;;;;;;14.37;100.00;100533.66;4951586;29;20470;-82
2023/07/22 02:18:04;;;;;;;12.63;11.33;;;;;;;14.31;100.00;100546.28;4954108;29;20544;-82
2023/07/22 02:20:35;;;;;;;12.47;11.43;;;;;;;14.25;100.00;100547.19;4938238;29;20460;-82
2023/07/22 02:23:07;;;;;;;12.17;11.00;;;;;;;14.15;100.00;100553.22;4923449;29;20449;-81
2023/07/22 02:25:39;;;;;;;11.60;10.70;;;;;;;14.06;100.00;100554.63;4939069;29;20554;-83
2023/07/22 02:28:10;;;;;;;11.50;10.33;;;;;;;14.01;100.00;100562.66;4952173;29;20464;-83
2023/07/22 02:30:39;;;;;;;11.03;10.13;;;;;;;14.02;100.00;100564.31;4939065;29;20429;-82
2023/07/22 02:33:09;;;;;;;10.70;9.53;;;;;;;13.90;100.00;100567.00;4946653;29;20435;-82
2023/07/22 02:35:42;;;;;;;13.60;10.10;;;;;;;13.86;100.00;100559.53;4950158;29;20555;-81
2023/07/22 02:38:14;;;;;;;12.10;10.90;;;;;;;13.80;100.00;100565.88;4942833;29;20764;-80
2023/07/22 02:40:46;;;;;;;10.20;9.30;;;;;;;13.76;100.00;100570.13;4940417;28;20417;-82
2023/07/22 02:43:15;;;;;;;10.70;9.70;;;;;;;13.76;100.00;100575.56;4944998;28;20464;-83
2023/07/22 02:45:45;;;;;;;11.13;10.07;;;;;;;13.67;100.00;100568.81;4956983;28;20441;-82
2023/07/22 02:48:18;;;;;;;13.97;10.80;;;;;;;13.70;100.00;100574.59;4949081;29;20433;-82
2023/07/22 02:50:47;;;;;;;11.23;8.90;;;;;;;13.63;100.00;100564.88;4947213;29;20428;-82
2023/07/22 02:53:18;;;;;;;13.00;9.40;;;;;;;13.54;100.00;100577.16;4936327;29;20449;-78
2023/07/22 02:55:48;;;;;;;12.10;10.23;;;;;;;13.56;100.00;100585.88;4961368;29;20467;-80
2023/07/22 02:58:18;;;;;;;10.23;9.37;;;;;;;13.48;100.00;100587.88;4965295;28;20440;-81
2023/07/22 03:00:47;;;;;;;11.57;9.80;;;;;;;13.42;100.00;100591.50;4955128;29;20475;-81
2023/07/22 03:03:18;;;;;;;10.00;8.97;;;;;;;13.39;100.00;100581.09;4945192;29;20464;-81
2023/07/22 03:05:48;;;;;;;10.20;9.20;;;;;;;13.41;100.00;100592.53;4960504;29;20428;-81
2023/07/22 03:08:19;;;;;;;8.97;8.20;;;;;;;13.41;100.00;100600.69;4957424;29;20488;-82
2023/07/22 03:10:49;;;;;;;10.17;9.27;;;;;;;13.34;100.00;100591.81;4947743;29;20504;-80
2023/07/22 03:13:19;;;;;;;10.00;9.00;;;;;;;13.32;100.00;100596.63;4936205;29;20477;-81
2023/07/22 03:15:48;;;;;;;10.00;9.10;;;;;;;13.31;100.00;100603.13;4949622;29;21016;-81
2023/07/22 03:18:17;;;;;;;9.87;8.87;;;;;;;13.20;100.00;100595.75;4942300;29;20466;-82
2023/07/22 03:20:47;;;;;;;9.30;8.43;;;;;;;13.36;100.00;100597.84;4953684;29;20468;-81
2023/07/22 03:23:16;;;;;;;9.43;8.53;;;;;;;13.39;100.00;100608.28;4951371;29;20439;-80
2023/07/22 03:25:46;;;;;;;11.47;8.90;;;;;;;13.37;100.00;100606.81;4954558;29;20420;-83
2023/07/22 03:28:16;;;;;;;8.00;7.20;;;;;;;13.36;100.00;100606.00;4952581;29;20465;-82
2023/07/22 03:30:45;;;;;;;9.90;8.93;;;;;;;13.29;100.00;100610.69;4946664;29;20429;-82
2023/07/22 03:33:15;;;;;;;8.77;7.97;;;;;;;13.29;100.00;100613.41;4954175;29;20444;-82
2023/07/22 03:35:44;;;;;;;11.90;8.80;;;;;;;13.36;100.00;100619.56;4946115;29;20431;-80
2023/07/22 03:38:14;;;;;;;10.00;9.10;;;;;;;13.40;100.00;100617.25;4967466;28;20459;-80
2023/07/22 03:40:43;;;;;;;9.03;7.93;;;;;;;13.40;100.00;100626.25;4959799;28;20437;-80
2023/07/22 03:43:13;;;;;;;9.80;7.60;;;;;;;13.66;100.00;100622.34;4949872;29;20476;-80
2023/07/22 03:45:43;;;;;;;9.93;9.03;;;;;;;13.89;100.00;100629.81;4949530;29;20453;-81
2023/07/22 03:48:14;;;;;;;8.50;7.70;;;;;;;14.27;100.00;100627.56;4948375;29;20464;-81
2023/07/22 03:50:44;;;;;;;10.27;8.13;;;;;;;14.61;100.00;100636.06;4949654;29;20440;-82
2023/07/22 03:53:13;;;;;;;7.67;6.97;;;;;;;14.95;100.00;100632.53;4941967;29;21004;-82
2023/07/22 03:55:42;;;;;;;9.00;8.10;;;;;;;14.74;100.00;100638.56;4947745;29;20484;-80
2023/07/22 03:58:13;;;;;;;8.00;7.20;;;;;;;14.48;100.00;100634.38;4954313;29;20455;-82
2023/07/22 04:00:42;;;;;;;9.57;8.17;;;;;;;14.54;100.00;100635.34;4945631;29;20473;-81
2023/07/22 04:03:12;;;;;;;9.37;8.47;;;;;;;15.35;100.00;100642.69;4934259;29;20419;-79
2023/07/22 04:05:44;;;;;;;8.93;8.13;;;;;;;16.23;100.00;100639.56;4933979;29;20453;-82
2023/07/22 04:08:14;;;;;;;8.80;8.00;;;;;;;16.60;97.10;100638.09;4961190;28;20984;-82
2023/07/22 04:10:51;;;;;;;6.60;6.10;;;;;;;16.57;95.89;100637.72;4946930;29;20411;-81
2023/07/22 04:13:22;;;;;;;7.30;6.80;;;;;;;16.39;98.92;100636.88;4942945;29;20436;-80
2023/07/22 04:15:52;;;;;;;7.97;6.50;;;;;;;16.82;94.76;100641.72;4942960;29;20468;-80
2023/07/22 04:18:22;;;;;;;6.80;6.20;;;;;;;17.19;92.64;100638.44;4948144;29;20464;-81
2023/07/22 04:20:58;;;;;;;7.20;6.30;;;;;;;17.79;88.61;100647.50;4947481;28;20429;-82
2023/07/22 04:23:27;;;;;;;7.60;5.60;;;;;;;18.30;84.30;100642.53;4953561;28;20452;-81
2023/07/22 04:25:56;;;;;;;6.20;5.60;;;;;;;18.88;81.43;100649.94;4949599;28;20427;-82
2023/07/22 04:28:28;;;;;;;7.90;7.20;;;;;;;19.15;80.02;100649.88;4968188;28;20471;-81
2023/07/22 04:31:01;;;;;;;5.97;5.47;;;;;;;19.47;77.36;100658.84;4958410;28;20480;-82
2023/07/22 04:33:30;;;;;;;6.13;5.63;;;;;;;19.78;74.60;100661.75;4972662;28;20443;-81
2023/07/22 04:36:01;;;;;;;5.60;5.20;;;;;;;19.33;74.70;100657.66;4959868;28;20498;-81
2023/07/22 04:38:30;;;;;;;5.70;5.17;;;;;;;19.88;73.21;100657.13;4952138;28;20420;-80
2023/07/22 04:41:01;;;;;;;7.47;4.57;;;;;;;20.38;69.97;100658.41;4952964;28;20415;-79
2023/07/22 04:43:32;;;;;;;5.77;4.80;;;;;;;20.59;69.74;100659.22;4937909;29;20432;-79
2023/07/22 04:46:01;;;;;;;7.60;4.90;;;;;;;20.93;67.22;100659.50;4941033;29;20435;-82
2023/07/22 04:48:32;;;;;;;5.47;5.00;;;;;;;20.95;66.88;100660.88;4940449;29;20452;-82
2023/07/22 04:51:01;;;;;;;5.40;4.37;;;;;;;20.80;66.70;100664.47;4947817;29;20467;-80
2023/07/22 04:53:30;;;;;;;4.93;4.53;;;;;;;20.89;66.67;100656.47;4949274;29;20431;-83
2023/07/22 04:56:00;;;;;;;6.20;5.60;;;;;;;20.27;66.55;100660.25;4932302;29;20614;-79
2023/07/22 04:58:30;;;;;;;5.93;4.93;;;;;;;20.55;66.67;100669.13;4949238;29;20464;-78
2023/07/22 05:01:02;;;;;;;5.37;4.87;;;;;;;20.51;66.18;100673.50;4954566;28;20466;-82
2023/07/22 05:03:32;;;;;;;5.70;5.20;;;;;;;21.45;64.22;100664.66;4934520;29;20420;-79
2023/07/22 05:06:02;;;;;;;5.73;5.20;;;;;;;21.35;62.44;100681.22;4952988;29;20430;-81
2023/07/22 05:08:31;;;;;;;6.17;5.57;;;;;;;21.80;62.96;100681.06;4937045;29;20430;-80
2023/07/22 05:11:04;;;;;;;6.97;5.60;;;;;;;22.61;60.00;100680.63;4956284;29;20417;-81
2023/07/22 05:13:40;;;;;;;5.33;4.70;;;;;;;22.54;60.06;100682.91;4951325;29;20491;-80
2023/07/22 05:16:09;;;;;;;7.37;6.50;;;;;;;21.40;62.32;100681.19;4951983;28;20488;-81
2023/07/22 05:18:39;;;;;;;6.50;5.90;;;;;;;21.71;61.25;100682.75;4964850;28;20443;-80
2023/07/22 05:21:08;;;;;;;7.63;6.07;;;;;;;21.89;62.02;100684.06;4945314;28;20387;-81
2023/07/22 05:23:38;;;;;;;7.20;6.50;;;;;;;20.98;63.07;100689.75;4959411;29;20487;-81
2023/07/22 05:26:07;;;;;;;7.37;6.33;;;;;;;21.04;64.30;100683.97;4956163;29;20409;-81
2023/07/22 05:28:36;;;;;;;6.50;5.80;;;;;;;22.02;61.57;100689.84;4967335;29;20432;-82
2023/07/22 05:31:07;;;;;;;7.20;6.50;;;;;;;21.28;61.68;100694.44;4973287;29;20424;-81
2023/07/22 05:33:39;;;;;;;8.10;5.83;;;;;;;20.82;62.91;100694.41;4951443;29;20533;-80
2023/07/22 05:36:10;;;;;;;7.93;6.80;;;;;;;19.42;68.58;100699.97;4949179;29;20472;-80
2023/07/22 05:38:51;;;;;;;14.00;7.30;;;;;;;18.39;75.90;100701.28;4954056;29;20522;-79
2023/07/22 05:41:22;;;;;;;7.93;6.50;;;;;;;18.15;77.70;100700.72;4954841;29;20428;-80
2023/07/22 05:44:03;;;;;;;9.03;8.13;;;;;;;17.30;81.53;100703.13;4964962;29;20428;-80
2023/07/22 05:46:37;;;;;;;9.00;7.90;;;;;;;17.02;86.13;100706.81;4964083;29;20410;-80
2023/07/22 05:49:07;;;;;;;8.37;7.47;;;;;;;17.25;86.10;100711.28;4959082;29;20480;-80
2023/07/22 05:51:41;;;;;;;8.47;7.67;;;;;;;17.38;85.14;100716.38;4969119;29;20446;-81
2023/07/22 05:54:12;;;;;;;9.87;7.80;;;;;;;17.33;85.19;100713.59;4956848;29;20480;-80
2023/07/22 05:56:45;;;;;;;10.47;7.73;;;;;;;17.20;87.84;100713.94;4956445;29;20458;-80
2023/07/22 05:59:17;;;;;;;9.93;8.70;;;;;;;17.09;86.61;100707.47;4954366;29;20415;-81
2023/07/22 06:01:53;;;;;;;9.23;8.40;;;;;;;16.98;85.88;100721.22;4966040;29;20424;-82
2023/07/22 06:04:33;;;;;;;9.70;8.73;;;;;;;17.03;86.66;100718.59;4955849;29;20434;-82
2023/07/22 06:07:19;;;;;;;10.00;9.00;;;;;;;16.79;85.40;100707.00;4954102;29;20473;-82
2023/07/22 06:09:49;;;;;;;11.70;9.73;;;;;;;16.83;86.76;100719.06;4955371;29;20457;-83
2023/07/22 06:12:26;;;;;;;9.70;8.80;;;;;;;16.81;87.55;100704.81;4953694;29;20506;-79
2023/07/22 06:14:58;;;;;;;9.60;8.00;;;;;;;16.73;87.72;100714.25;4953960;29;20448;-81
2023/07/22 06:17:30;;;;;;;12.07;8.30;;;;;;;16.73;87.41;100719.72;4959831;28;20523;-80
2023/07/22 06:20:18;;;;;;;10.60;9.60;;;;;;;16.87;86.60;100721.06;4955084;29;20844;-83
2023/07/22 06:22:49;;;;;;;12.80;9.63;;;;;;;16.88;88.84;100722.72;4936020;29;20431;-81
2023/07/22 06:25:21;;;;;;;11.17;9.40;;;;;;;17.04;86.19;100726.53;4948651;29;20526;-79
2023/07/22 06:27:53;;;;;;;12.17;9.50;;;;;;;17.09;84.38;100734.00;4956116;29;20459;-82
2023/07/22 06:30:23;;;;;;;9.57;8.60;;;;;;;17.41;85.42;100732.31;4953885;28;20450;-80
2023/07/22 06:32:56;;;;;;;12.63;9.90;;;;;;;17.46;84.01;100734.28;4951189;29;20427;-80
2023/07/22 06:35:25;;;;;;;12.70;8.67;;;;;;;17.54;84.19;100731.13;4960643;29;20467;-81
2023/07/22 06:37:55;;;;;;;9.30;8.10;;;;;;;17.54;82.68;100737.41;4957552;29;20469;-80
2023/07/22 06:40:24;;;;;;;8.90;7.80;;;;;;;17.85;82.71;100744.19;4954156;29;20456;-81
2023/07/22 06:42:54;;;;;;;10.07;8.87;;;;;;;17.93;81.42;100740.16;4937016;29;20483;-81
2023/07/22 06:45:23;;;;;;;8.87;7.97;;;;;;;18.09;78.20;100739.28;4952110;29;20503;-79
2023/07/22 06:47:55;;;;;;;6.60;5.90;;;;;;;18.23;77.18;100746.03;4947900;29;20435;-81
2023/07/22 06:50:24;;;;;;;9.03;8.03;;;;;;;18.48;77.08;100746.31;4959220;29;20543;-80
2023/07/22 06:52:54;;;;;;;13.80;8.73;;;;;;;18.07;75.61;100742.25;4956880;29;20429;-82
2023/07/22 06:55:23;;;;;;;11.27;9.47;;;;;;;17.67;76.55;100739.81;4968036;29;20415;-80
2023/07/22 06:57:52;;;;;;;8.93;7.43;;;;;;;17.83;76.64;100754.53;4959529;29;20544;-82
2023/07/22 07:00:22;;;;;;;9.20;7.47;;;;;;;17.79;77.54;100746.03;4953553;29;20945;-82
2023/07/22 07:02:56;;;;;;;13.30;6.97;;;;;;;18.05;75.07;100744.44;4951645;29;20427;-81
2023/07/22 07:05:26;;;;;;;9.13;6.50;;;;;;;18.20;74.79;100750.09;4941857;29;20461;-82
2023/07/22 07:07:58;;;;;;;6.13;5.53;;;;;;;18.08;74.85;100745.84;4959995;28;20473;-82
2023/07/22 07:10:27;;;;;;;8.80;6.70;;;;;;;18.47;74.00;100747.41;4958149;28;20520;-81
2023/07/22 07:12:58;;;;;;;6.43;4.80;;;;;;;18.78;71.48;100745.81;4946755;29;20503;-81
2023/07/22 07:15:27;;;;;;;6.17;5.23;;;;;;;18.67;69.34;100755.88;4944136;29;20457;-83
2023/07/22 07:17:58;;;;;;;9.80;6.30;;;;;;;18.43;68.79;100746.25;4948759;29;20488;-82
2023/07/22 07:20:27;;;;;;;7.97;5.90;;;;;;;18.49;68.88;100750.69;4961152;29;20541;-83
2023/07/22 07:22:56;;;;;;;6.17;4.90;;;;;;;18.18;68.67;100759.66;4948522;29;20437;-82
2023/07/22 07:25:26;;;;;;;5.53;4.77;;;;;;;17.96;69.33;100756.09;4951672;29;20427;-82
2023/07/22 07:27:55;;;;;;;8.53;6.40;;;;;;;17.99;71.94;100755.59;4955183;29;20507;-82
2023/07/22 07:30:24;;;;;;;6.17;5.57;;;;;;;18.25;71.65;100752.06;4942408;29;20428;-82
2023/07/22 07:32:53;;;;;;;7.17;5.23;;;;;;;18.52;69.74;100757.56;4948558;29;20411;-80
2023/07/22 07:35:24;;;;;;;10.80;6.13;;;;;;;18.43;69.32;100764.59;4948117;29;21006;-81
2023/07/22 07:37:54;;;;;;;7.20;4.73;;;;;;;18.62;66.67;100761.28;4947101;29;20489;-82
2023/07/22 07:40:23;;;;;;;10.33;7.17;;;;;;;19.18;64.58;100769.19;4950087;29;20430;-82
2023/07/22 07:42:52;;;;;;;7.93;5.27;;;;;;;19.49;64.08;100776.59;4948615;29;20484;-82
2023/07/22 07:45:22;;;;;;;7.07;5.77;;;;;;;19.44;61.91;100780.16;4947780;29;20524;-80
2023/07/22 07:47:52;;;;;;;6.77;5.30;;;;;;;19.58;62.91;100779.69;4941617;29;20921;-82
2023/07/22 07:50:24;;;;;;;6.97;6.00;;;;;;;19.38;63.47;100781.16;4957624;29;20432;-82
2023/07/22 07:52:53;;;;;;;7.70;6.10;;;;;;;19.31;63.67;100782.47;4952136;29;20409;-80
2023/07/22 07:55:23;;;;;;;6.73;5.57;;;;;;;19.32;63.21;100779.47;4946030;29;20423;-83
2023/07/22 07:57:53;;;;;;;11.93;5.70;;;;;;;19.40;64.20;100779.00;4947605;29;20534;-83
2023/07/22 08:00:22;;;;;;;14.47;6.43;;;;;;;19.51;61.50;100780.72;4943052;29;20901;-83
2023/07/22 08:02:53;;;;;;;9.93;5.70;;;;;;;19.33;61.33;100789.34;4948185;29;20448;-83
2023/07/22 08:05:24;;;;;;;8.33;5.87;;;;;;;19.17;61.39;100784.81;4943458;29;20465;-81
2023/07/22 08:07:54;;;;;;;7.23;6.37;;;;;;;19.25;62.78;100792.59;4949730;29;20446;-82
2023/07/22 08:10:24;;;;;;;6.20;5.60;;;;;;;18.60;63.01;100793.59;4959326;29;20458;-82
2023/07/22 08:12:53;;;;;;;11.80;6.83;;;;;;;18.64;63.66;100786.50;4948826;29;20433;-81
2023/07/22 08:15:22;;;;;;;9.47;7.00;;;;;;;18.94;62.51;100782.41;4955622;29;20432;-82
2023/07/22 08:17:52;;;;;;;13.30;7.60;;;;;;;19.38;63.46;100785.81;4949405;29;20484;-81
2023/07/22 08:20:22;;;;;;;7.90;6.03;;;;;;;19.65;61.20;100792.09;4953980;28;20432;-82
2023/07/22 08:22:52;;;;;;;9.07;6.97;;;;;;;19.68;60.78;100796.22;4951607;29;20452;-81
2023/07/22 08:25:22;;;;;;;7.90;6.27;;;;;;;19.38;60.88;100789.38;4952850;29;21032;-81
2023/07/22 08:27:53;;;;;;;6.93;5.30;;;;;;;19.45;62.02;100802.94;4946853;29;20451;-82
2023/07/22 08:30:22;;;;;;;7.00;6.13;;;;;;;19.22;61.81;100804.06;4954830;28;20419;-81
2023/07/22 08:32:52;;;;;;;8.10;6.30;;;;;;;18.76;63.21;100804.72;4973288;28;20428;-82
2023/07/22 08:35:26;;;;;;;7.10;6.27;;;;;;;18.95;63.64;100804.09;4958306;28;20477;-82
2023/07/22 08:38:15;;;;;;;9.33;5.87;;;;;;;18.89;61.20;100801.56;4953906;28;20450;-82
2023/07/22 08:40:57;;;;;;;10.83;5.43;;;;;;;18.95;61.11;100803.28;4966043;28;20479;-83
2023/07/22 08:43:35;;;;;;;10.30;5.90;;;;;;;19.18;60.79;100818.56;4960877;28;20420;-82
2023/07/22 08:46:07;;;;;;;5.90;4.60;;;;;;;18.91;60.63;100808.47;4966272;28;20455;-82
2023/07/22 08:48:42;;;;;;;6.20;4.90;;;;;;;18.90;61.72;100811.44;4968493;28;20423;-80
2023/07/22 08:51:16;;;;;;;7.27;6.43;;;;;;;19.00;60.44;100815.13;4961373;29;20494;-81
2023/07/22 08:53:50;;;;;;;7.90;5.80;;;;;;;19.37;59.27;100817.09;4944657;29;20738;-82
2023/07/22 08:56:39;;;;;;;9.97;6.00;;;;;;;19.40;58.89;100820.16;4958504;28;20450;-80
2023/07/22 08:59:10;;;;;;;6.27;5.60;;;;;;;19.33;59.65;100827.75;4961240;28;20462;-81
2023/07/22 09:01:40;;;;;;;8.50;5.80;;;;;;;19.12;59.71;100823.19;4949034;29;20431;-81
2023/07/22 09:04:10;;;;;;;8.67;7.33;;;;;;;19.12;60.69;100820.47;4959351;29;20500;-81
2023/07/22 09:06:40;;;;;;;5.50;4.80;;;;;;;19.39;58.78;100826.72;4946152;29;20453;-81
2023/07/22 09:09:12;;;;;;;11.60;6.17;;;;;;;19.30;58.61;100827.47;4952497;29;20456;-80
2023/07/22 09:11:51;;;;;;;6.13;5.23;;;;;;;19.40;58.51;100833.88;4951536;29;20447;-83
2023/07/22 09:14:22;;;;;;;10.00;6.10;;;;;;;19.47;58.78;100818.03;4951778;29;20394;-83
2023/07/22 09:17:07;;;;;;;7.17;6.40;;;;;;;19.80;59.00;100822.38;4958871;29;20489;-83
2023/07/22 09:19:36;;;;;;;7.70;5.30;;;;;;;19.72;58.50;100819.31;4957273;29;20468;-83
2023/07/22 09:22:09;;;;;;;9.07;6.17;;;;;;;19.67;57.16;100822.00;4946515;29;20449;-83
2023/07/22 09:24:49;;;;;;;5.63;5.00;;;;;;;19.70;57.75;100818.75;4934139;29;20415;-82
2023/07/22 09:27:33;;;;;;;7.13;5.70;;;;;;;19.92;58.15;100820.28;4958774;29;20435;-82
2023/07/22 09:30:23;;;;;;;6.80;5.83;;;;;;;20.49;56.52;100813.97;4952005;29;20445;-81
2023/07/22 09:32:52;;;;;;;7.20;5.10;;;;;;;20.82;54.40;100821.75;4939828;28;20402;-82
2023/07/22 09:35:23;;;;;;;7.20;5.50;;;;;;;21.06;53.19;100829.50;4963006;28;20448;-82
2023/07/22 09:37:53;;;;;;;4.63;4.13;;;;;;;21.40;52.33;100818.81;4961754;28;20447;-81
2023/07/22 09:40:25;;;;;;;4.67;3.80;;;;;;;21.87;50.39;100813.81;4960556;28;20415;-82
2023/07/22 09:42:57;;;;;;;6.23;4.97;;;;;;;21.65;51.36;100827.06;4949798;28;20492;-82
2023/07/22 09:45:29;;;;;;;7.57;5.73;;;;;;;21.63;50.56;100823.78;4944780;28;20436;-83
2023/07/22 09:47:59;;;;;;;6.03;4.63;;;;;;;21.72;50.35;100805.59;4957543;29;20447;-82
2023/07/22 09:50:29;;;;;;;6.97;4.20;;;;;;;21.96;48.70;100817.69;4940877;29;20437;-83
2023/07/22 09:52:59;;;;;;;5.93;3.67;;;;;;;22.01;46.87;100812.16;4942269;29;20483;-81
2023/07/22 09:55:31;;;;;;;6.70;3.20;;;;;;;21.86;48.17;100814.94;4927270;29;20442;-80
2023/07/22 09:58:03;;;;;;;4.53;3.23;;;;;;;22.12;47.69;100825.91;4937428;29;20502;-83
2023/07/22 10:00:35;;;;;;;8.57;3.13;;;;;;;21.98;47.34;100820.97;4946716;29;20452;-84
2023/07/22 10:03:09;;;;;;;5.10;3.67;;;;;;;22.05;47.88;100827.03;4944762;29;20466;-82
2023/07/22 10:05:42;;;;;;;4.80;3.50;;;;;;;21.36;47.66;100820.47;4946383;29;20460;-81
2023/07/22 10:08:13;;;;;;;4.57;3.83;;;;;;;21.72;47.41;100838.63;4911888;29;20447;-83
2023/07/22 10:10:46;;;;;;;4.83;3.30;;;;;;;21.26;47.93;100826.81;4939602;29;20788;-81
2023/07/22 10:13:15;;;;;;;5.13;3.93;;;;;;;21.25;48.42;100823.22;4942156;29;20584;-83
2023/07/22 10:15:46;;;;;;;4.00;3.30;;;;;;;21.10;48.95;100825.94;4935014;29;20445;-81
2023/07/22 10:18:17;;;;;;;5.10;4.17;;;;;;;21.51;48.17;100831.47;4954174;29;20503;-82
2023/07/22 10:20:47;;;;;;;4.77;3.23;;;;;;;21.43;48.28;100824.63;4928142;29;20870;-84
2023/07/22 10:23:17;;;;;;;3.83;2.60;;;;;;;21.29;47.79;100826.28;4944242;29;20468;-84
2023/07/22 10:25:49;;;;;;;4.27;3.10;;;;;;;21.13;49.61;100830.06;4934712;29;20496;-83
2023/07/22 10:28:20;;;;;;;5.07;3.80;;;;;;;20.66;49.33;100831.09;4936006;29;20447;-83
2023/07/22 10:30:50;;;;;;;5.10;3.50;;;;;;;20.86;49.19;100835.81;4956206;29;20434;-81
2023/07/22 10:33:19;;;;;;;3.73;3.17;;;;;;;20.98;49.02;100825.38;4953732;29;20512;-82
2023/07/22 10:36:05;;;;;;;5.30;4.00;;;;;;;21.45;49.24;100822.41;4932151;29;20419;-82
2023/07/22 10:38:36;;;;;;;4.83;3.47;;;;;;;21.88;47.88;100825.69;4940936;29;20868;-81
2023/07/22 10:41:16;;;;;;;5.80;4.00;;;;;;;21.11;47.63;100838.59;4932478;29;20774;-80
2023/07/22 10:43:56;;;;;;;5.17;3.13;;;;;;;20.75;47.85;100834.13;4940262;29;20430;-81
2023/07/22 10:46:38;;;;;;;4.37;3.73;;;;;;;20.80;47.61;100836.88;4942983;29;20419;-81
2023/07/22 10:49:12;;;;;;;4.83;4.20;;;;;;;20.75;49.18;100831.38;4958106;29;20450;-81
2023/07/22 10:51:42;;;;;;;8.40;4.40;;;;;;;21.37;47.92;100830.38;4941558;29;20444;-82
2023/07/22 10:54:16;;;;;;;6.60;4.57;;;;;;;21.76;46.57;100836.16;4939289;29;20469;-82
2023/07/22 10:56:47;;;;;;;4.40;4.00;;;;;;;21.30;44.62;100825.16;4938526;29;20951;-81
2023/07/22 10:59:16;;;;;;;5.70;4.40;;;;;;;21.16;45.49;100832.28;4937992;29;20500;-81
2023/07/22 11:01:46;;;;;;;4.70;3.80;;;;;;;21.43;45.77;100818.28;4951473;29;20453;-80
2023/07/22 11:04:30;;;;;;;5.67;4.60;;;;;;;21.78;44.91;100821.00;4951028;29;20442;-83
2023/07/22 11:07:11;;;;;;;4.40;3.93;;;;;;;21.87;44.78;100824.03;4942343;29;20472;-81
2023/07/22 11:09:43;;;;;;;4.90;4.40;;;;;;;21.85;45.41;100816.03;4937380;29;20434;-82
2023/07/22 11:12:20;;;;;;;10.30;5.63;;;;;;;21.46;45.47;100824.06;4958794;29;20456;-82
2023/07/22 11:14:51;;;;;;;4.70;4.00;;;;;;;21.40;45.70;100813.31;4954553;29;20536;-82
2023/07/22 11:17:30;;;;;;;5.17;4.43;;;;;;;21.60;45.07;100813.31;4945891;29;20479;-82
2023/07/22 11:20:00;;;;;;;4.40;4.00;;;;;;;21.68;44.08;100821.03;4941508;29;20434;-82
2023/07/22 11:22:30;;;;;;;4.27;3.87;;;;;;;21.47;44.75;100813.88;4950643;29;20476;-81
2023/07/22 11:25:01;;;;;;;6.57;3.53;;;;;;;21.63;44.60;100807.25;4952884;29;20444;-84
2023/07/22 11:27:32;;;;;;;4.83;3.93;;;;;;;21.90;45.05;100813.25;4936291;29;20483;-79
2023/07/22 11:30:03;;;;;;;4.70;4.00;;;;;;;22.35;44.81;100817.00;4944062;29;20444;-80
2023/07/22 11:32:34;;;;;;;5.70;4.37;;;;;;;22.66;43.73;100818.50;4934334;29;20428;-82
2023/07/22 11:35:03;;;;;;;4.73;3.90;;;;;;;21.99;43.42;100819.88;4944375;29;20811;-82